MiSS Freedom — WYF7443 — position and weather

sailwx.info

Track history (hours):
 
Tides and Currents Weather Stations Pressure Air Temp Water Temp Dewpoint Dewpoint Depression Visibility Wind Speed Wind Dir Waves Ship Positions

MiSS Freedom

Owner: CIRCLE LINE STATUE LIBERTY FERRY, NEW YORK, NY. More information available from US FCC via Universal Licensing System and Coast Guard Vessel Documentation Center.

Last reported at 2017-Sep-11 13:40 UTC. Time now 2017-Sep-26 07:25 UTC.
Position N 40°55' W 073°55'.
Warning: this ship's position is 14 days out of date.

Length 40 m.

MMSI: 367059290.

Date/timePositionNaut miles runAvg speedWind from/ knotsBaromVisibWave heightAir tempDewpointWater temp
2017-Sep-11 13:40N 40°55' W 073°55'210.6
2017-Sep-11 13:30N 40°54' W 073°55'610.3
2017-Sep-11 12:57N 40°49' W 073°58'4 9.6
2017-Sep-11 12:31N 40°45' W 074°01'2 4.7
2017-Sep-11 12:00N 40°43' W 074°02'0 0.0
2017-Sep-11 11:30N 40°43' W 074°02'0 0.0
2017-Sep-11 11:01N 40°43' W 074°02'0 0.0
2017-Sep-11 10:30N 40°43' W 074°02'  
2017-Sep-08 15:59N 40°43' W 074°02'0 0.0
2017-Sep-06 13:26N 40°43' W 074°02'0 0.2
2017-Sep-06 13:00N 40°43' W 074°02'0 0.0
2017-Sep-06 12:30N 40°43' W 074°02'0 0.0
2017-Sep-06 12:00N 40°43' W 074°02'0 0.0
2017-Sep-06 11:30N 40°43' W 074°02'0 0.0
2017-Sep-06 11:00N 40°43' W 074°02'0 0.0
2017-Sep-05 22:24N 40°43' W 074°02'1 1.8
2017-Sep-05 22:00N 40°42' W 074°02'1 1.6
2017-Sep-05 21:30N 40°41' W 074°03'1 2.6
2017-Sep-05 21:00N 40°42' W 074°02'1 2.3
2017-Sep-05 20:30N 40°41' W 074°03'1 2.2
2017-Sep-05 20:00N 40°42' W 074°02'1 2.2
2017-Sep-05 19:30N 40°41' W 074°03'1 1.2
2017-Sep-05 19:00N 40°42' W 074°02'0 0.8
2017-Sep-05 18:30N 40°42' W 074°02'0 0.8
2017-Sep-05 18:00N 40°42' W 074°02'1 1.0
2017-Sep-05 17:30N 40°42' W 074°02'1 2.3
2017-Sep-05 17:00N 40°41' W 074°03'1 2.3
2017-Sep-05 16:30N 40°42' W 074°02'1 2.3
2017-Sep-05 16:00N 40°41' W 074°03'1 1.2
2017-Sep-05 15:30N 40°42' W 074°02'0 0.7
2017-Sep-05 15:00N 40°42' W 074°02'0 0.7
2017-Sep-05 14:30N 40°42' W 074°02'1 1.0
2017-Sep-05 14:00N 40°42' W 074°02'1 1.0
2017-Sep-05 13:30N 40°42' W 074°02'0 0.9
2017-Sep-05 13:00N 40°42' W 074°02'1 1.5
2017-Sep-05 12:30N 40°42' W 074°01'2 3.2
2017-Sep-05 12:00N 40°41' W 074°03'2 3.2
2017-Sep-05 11:30N 40°42' W 074°01'2 3.2
2017-Sep-05 11:00N 40°41' W 074°03'2 3.2
2017-Sep-05 10:30N 40°42' W 074°01'1 2.1
2017-Sep-05 10:00N 40°42' W 074°02'0 0.0
2017-Sep-04 23:16N 40°42' W 074°02'0 0.1
2017-Sep-04 23:00N 40°42' W 074°02'0 0.6
2017-Sep-04 22:30N 40°42' W 074°02'0 0.7
2017-Sep-04 22:00N 40°42' W 074°02'0 1.0
2017-Sep-04 21:30N 40°42' W 074°02'1 2.2
2017-Sep-04 21:00N 40°41' W 074°03'1 2.3
2017-Sep-04 20:30N 40°42' W 074°02'1 2.3
2017-Sep-04 20:00N 40°41' W 074°03'1 2.3
2017-Sep-04 19:30N 40°42' W 074°02'1 2.3
2017-Sep-04 19:00N 40°41' W 074°03'1 1.2
2017-Sep-04 18:30N 40°42' W 074°02'0 0.6
2017-Sep-04 18:00N 40°42' W 074°02'1 1.3
2017-Sep-04 17:30N 40°41' W 074°03'1 2.4
2017-Sep-04 17:00N 40°42' W 074°02'1 2.3
2017-Sep-04 16:30N 40°41' W 074°03'1 1.7
2017-Sep-04 16:00N 40°42' W 074°02'1 1.9
2017-Sep-04 15:30N 40°41' W 074°03'1 1.5
2017-Sep-04 15:00N 40°42' W 074°02'1 1.0
2017-Sep-04 14:30N 40°42' W 074°02'1 1.1
2017-Sep-04 14:00N 40°42' W 074°02'1 1.1
2017-Sep-04 13:30N 40°42' W 074°02'1 2.3
2017-Sep-04 13:00N 40°41' W 074°03'1 2.3
2017-Sep-04 12:30N 40°42' W 074°02'0 0.0
2017-Sep-04 12:00N 40°42' W 074°02'0 0.8
2017-Sep-04 11:30N 40°43' W 074°02'0 0.0
2017-Sep-04 11:00N 40°43' W 074°02'0 0.0
2017-Sep-04 10:30N 40°43' W 074°02'0 0.0
2017-Sep-03 23:09N 40°43' W 074°02'0 2.9
2017-Sep-03 23:00N 40°42' W 074°02'0 0.8
2017-Sep-03 22:30N 40°42' W 074°02'0 0.8
2017-Sep-03 22:00N 40°42' W 074°02'1 2.2
2017-Sep-03 21:30N 40°41' W 074°03'1 2.3
2017-Sep-03 21:01N 40°42' W 074°02'1 2.2
2017-Sep-03 20:30N 40°41' W 074°03'1 2.2
2017-Sep-03 20:00N 40°42' W 074°02'1 2.2
2017-Sep-03 19:30N 40°41' W 074°03'1 2.3
2017-Sep-03 19:01N 40°42' W 074°02'1 2.6
2017-Sep-03 18:30N 40°41' W 074°03'1 1.5
2017-Sep-03 18:00N 40°42' W 074°02'1 1.0
2017-Sep-03 17:30N 40°42' W 074°02'1 2.3
2017-Sep-03 17:00N 40°41' W 074°03'1 2.3
2017-Sep-03 16:30N 40°42' W 074°02'1 2.3
2017-Sep-03 16:00N 40°41' W 074°03'1 1.3
2017-Sep-03 15:31N 40°42' W 074°02'0 0.8
2017-Sep-03 15:00N 40°42' W 074°02'0 0.1
2017-Sep-03 14:00N 40°42' W 074°02'0 0.7
2017-Sep-03 13:30N 40°42' W 074°02'0 0.6
2017-Sep-03 13:00N 40°42' W 074°02'1 1.9
2017-Sep-03 12:30N 40°42' W 074°01'2 3.1
2017-Sep-03 12:00N 40°41' W 074°03'2 3.1
2017-Sep-03 11:31N 40°42' W 074°01'2 3.2
2017-Sep-03 11:00N 40°41' W 074°03'2 3.2
2017-Sep-03 10:31N 40°42' W 074°01'1 2.2
2017-Sep-03 10:00N 40°42' W 074°02'0 0.0
2017-Sep-03 09:30N 40°42' W 074°02'0 0.0
2017-Sep-02 23:15N 40°42' W 074°02'0 0.1
2017-Sep-02 23:01N 40°42' W 074°02'0 0.5
2017-Sep-02 22:31N 40°42' W 074°02'0 0.6
2017-Sep-02 22:01N 40°42' W 074°02'0 0.8
2017-Sep-02 21:31N 40°42' W 074°02'0 0.6
2017-Sep-02 21:01N 40°41' W 074°02'1 2.0
2017-Sep-02 20:30N 40°42' W 074°02'1 2.2
2017-Sep-02 20:01N 40°41' W 074°03'1 2.3
2017-Sep-02 19:31N 40°42' W 074°02'1 2.4
2017-Sep-02 19:01N 40°41' W 074°03'1 1.3
2017-Sep-02 18:31N 40°42' W 074°02'0 0.5
2017-Sep-02 18:01N 40°42' W 074°02'0 0.4
2017-Sep-02 17:31N 40°42' W 074°02'1 1.1
2017-Sep-02 17:01N 40°42' W 074°02'1 2.3
2017-Sep-02 16:31N 40°41' W 074°03'1 2.3
2017-Sep-02 16:00N 40°42' W 074°02'1 2.6
2017-Sep-02 15:31N 40°41' W 074°03'1 1.5
2017-Sep-02 15:01N 40°42' W 074°02'1 1.0
2017-Sep-02 14:30N 40°42' W 074°02'1 1.8
2017-Sep-02 14:01N 40°42' W 074°02'1 1.8
2017-Sep-02 13:31N 40°42' W 074°02'1 2.3
2017-Sep-02 13:01N 40°41' W 074°03'1 2.3
2017-Sep-02 12:31N 40°42' W 074°02'0 0.0
2017-Sep-02 12:00N 40°42' W 074°02'0 0.9
2017-Sep-02 11:31N 40°43' W 074°03'0 0.0
2017-Sep-02 11:01N 40°43' W 074°02'0 0.0
2017-Sep-01 23:17N 40°43' W 074°02'0 1.6
2017-Sep-01 23:00N 40°42' W 074°02'1 1.4
2017-Sep-01 22:30N 40°42' W 074°02'1 1.3
2017-Sep-01 22:00N 40°42' W 074°02'1 2.5
2017-Sep-01 21:30N 40°41' W 074°03'1 2.5
2017-Sep-01 21:00N 40°42' W 074°02'1 2.2
2017-Sep-01 20:30N 40°41' W 074°03'1 2.3
2017-Sep-01 20:00N 40°42' W 074°02'1 2.3
2017-Sep-01 19:30N 40°41' W 074°03'1 1.2
2017-Sep-01 19:00N 40°42' W 074°02'1 1.7
2017-Sep-01 18:30N 40°41' W 074°03'1 1.7
2017-Sep-01 18:00N 40°42' W 074°02'1 1.0
2017-Sep-01 17:30N 40°42' W 074°02'1 2.3
2017-Sep-01 17:00N 40°41' W 074°03'1 2.3
2017-Sep-01 16:30N 40°42' W 074°02'1 2.3
2017-Sep-01 16:00N 40°41' W 074°03'1 1.3
2017-Sep-01 15:30N 40°42' W 074°02'0 0.6
2017-Sep-01 15:00N 40°42' W 074°02'0 0.6
2017-Sep-01 14:30N 40°42' W 074°02'1 1.5
2017-Sep-01 14:00N 40°41' W 074°03'  
Track history (hours):
 
Tides and Currents Weather Stations Pressure Air Temp Water Temp Dewpoint Dewpoint Depression Visibility Wind Speed Wind Dir Waves Ship Positions

MiSS Freedom

Owner: CIRCLE LINE STATUE LIBERTY FERRY, NEW YORK, NY. More information available from US FCC via Universal Licensing System and Coast Guard Vessel Documentation Center.

Last reported at 2017-Sep-11 13:40 UTC. Time now 2017-Sep-26 07:25 UTC.
Position N 40°55' W 073°55'.
Warning: this ship's position is 14 days out of date.

Length 40 m.

MMSI: 367059290.

Date/timePositionNaut miles runAvg speedWind from/ knotsBaromVisibWave heightAir tempDewpointWater temp
2017-Sep-11 13:40N 40°55' W 073°55'210.6
2017-Sep-11 13:30N 40°54' W 073°55'610.3
2017-Sep-11 12:57N 40°49' W 073°58'4 9.6
2017-Sep-11 12:31N 40°45' W 074°01'2 4.7
2017-Sep-11 12:00N 40°43' W 074°02'0 0.0
2017-Sep-11 11:30N 40°43' W 074°02'0 0.0
2017-Sep-11 11:01N 40°43' W 074°02'0 0.0
2017-Sep-11 10:30N 40°43' W 074°02'  
2017-Sep-08 15:59N 40°43' W 074°02'0 0.0
2017-Sep-06 13:26N 40°43' W 074°02'0 0.2
2017-Sep-06 13:00N 40°43' W 074°02'0 0.0
2017-Sep-06 12:30N 40°43' W 074°02'0 0.0
2017-Sep-06 12:00N 40°43' W 074°02'0 0.0
2017-Sep-06 11:30N 40°43' W 074°02'0 0.0
2017-Sep-06 11:00N 40°43' W 074°02'0 0.0
2017-Sep-05 22:24N 40°43' W 074°02'1 1.8
2017-Sep-05 22:00N 40°42' W 074°02'1 1.6
2017-Sep-05 21:30N 40°41' W 074°03'1 2.6
2017-Sep-05 21:00N 40°42' W 074°02'1 2.3
2017-Sep-05 20:30N 40°41' W 074°03'1 2.2
2017-Sep-05 20:00N 40°42' W 074°02'1 2.2
2017-Sep-05 19:30N 40°41' W 074°03'1 1.2
2017-Sep-05 19:00N 40°42' W 074°02'0 0.8
2017-Sep-05 18:30N 40°42' W 074°02'0 0.8
2017-Sep-05 18:00N 40°42' W 074°02'1 1.0
2017-Sep-05 17:30N 40°42' W 074°02'1 2.3
2017-Sep-05 17:00N 40°41' W 074°03'1 2.3
2017-Sep-05 16:30N 40°42' W 074°02'1 2.3
2017-Sep-05 16:00N 40°41' W 074°03'1 1.2
2017-Sep-05 15:30N 40°42' W 074°02'0 0.7
2017-Sep-05 15:00N 40°42' W 074°02'0 0.7
2017-Sep-05 14:30N 40°42' W 074°02'1 1.0
2017-Sep-05 14:00N 40°42' W 074°02'1 1.0
2017-Sep-05 13:30N 40°42' W 074°02'0 0.9
2017-Sep-05 13:00N 40°42' W 074°02'1 1.5
2017-Sep-05 12:30N 40°42' W 074°01'2 3.2
2017-Sep-05 12:00N 40°41' W 074°03'2 3.2
2017-Sep-05 11:30N 40°42' W 074°01'2 3.2
2017-Sep-05 11:00N 40°41' W 074°03'2 3.2
2017-Sep-05 10:30N 40°42' W 074°01'1 2.1
2017-Sep-05 10:00N 40°42' W 074°02'0 0.0
2017-Sep-04 23:16N 40°42' W 074°02'0 0.1
2017-Sep-04 23:00N 40°42' W 074°02'0 0.6
2017-Sep-04 22:30N 40°42' W 074°02'0 0.7
2017-Sep-04 22:00N 40°42' W 074°02'0 1.0
2017-Sep-04 21:30N 40°42' W 074°02'1 2.2
2017-Sep-04 21:00N 40°41' W 074°03'1 2.3
2017-Sep-04 20:30N 40°42' W 074°02'1 2.3
2017-Sep-04 20:00N 40°41' W 074°03'1 2.3
2017-Sep-04 19:30N 40°42' W 074°02'1 2.3
2017-Sep-04 19:00N 40°41' W 074°03'1 1.2
2017-Sep-04 18:30N 40°42' W 074°02'0 0.6
2017-Sep-04 18:00N 40°42' W 074°02'1 1.3
2017-Sep-04 17:30N 40°41' W 074°03'1 2.4
2017-Sep-04 17:00N 40°42' W 074°02'1 2.3
2017-Sep-04 16:30N 40°41' W 074°03'1 1.7
2017-Sep-04 16:00N 40°42' W 074°02'1 1.9
2017-Sep-04 15:30N 40°41' W 074°03'1 1.5
2017-Sep-04 15:00N 40°42' W 074°02'1 1.0
2017-Sep-04 14:30N 40°42' W 074°02'1 1.1
2017-Sep-04 14:00N 40°42' W 074°02'1 1.1
2017-Sep-04 13:30N 40°42' W 074°02'1 2.3
2017-Sep-04 13:00N 40°41' W 074°03'1 2.3
2017-Sep-04 12:30N 40°42' W 074°02'0 0.0
2017-Sep-04 12:00N 40°42' W 074°02'0 0.8
2017-Sep-04 11:30N 40°43' W 074°02'0 0.0
2017-Sep-04 11:00N 40°43' W 074°02'0 0.0
2017-Sep-04 10:30N 40°43' W 074°02'0 0.0
2017-Sep-03 23:09N 40°43' W 074°02'0 2.9
2017-Sep-03 23:00N 40°42' W 074°02'0 0.8
2017-Sep-03 22:30N 40°42' W 074°02'0 0.8
2017-Sep-03 22:00N 40°42' W 074°02'1 2.2
2017-Sep-03 21:30N 40°41' W 074°03'1 2.3
2017-Sep-03 21:01N 40°42' W 074°02'1 2.2
2017-Sep-03 20:30N 40°41' W 074°03'1 2.2
2017-Sep-03 20:00N 40°42' W 074°02'1 2.2
2017-Sep-03 19:30N 40°41' W 074°03'1 2.3
2017-Sep-03 19:01N 40°42' W 074°02'1 2.6
2017-Sep-03 18:30N 40°41' W 074°03'1 1.5
2017-Sep-03 18:00N 40°42' W 074°02'1 1.0
2017-Sep-03 17:30N 40°42' W 074°02'1 2.3
2017-Sep-03 17:00N 40°41' W 074°03'1 2.3
2017-Sep-03 16:30N 40°42' W 074°02'1 2.3
2017-Sep-03 16:00N 40°41' W 074°03'1 1.3
2017-Sep-03 15:31N 40°42' W 074°02'0 0.8
2017-Sep-03 15:00N 40°42' W 074°02'0 0.1
2017-Sep-03 14:00N 40°42' W 074°02'0 0.7
2017-Sep-03 13:30N 40°42' W 074°02'0 0.6
2017-Sep-03 13:00N 40°42' W 074°02'1 1.9
2017-Sep-03 12:30N 40°42' W 074°01'2 3.1
2017-Sep-03 12:00N 40°41' W 074°03'2 3.1
2017-Sep-03 11:31N 40°42' W 074°01'2 3.2
2017-Sep-03 11:00N 40°41' W 074°03'2 3.2
2017-Sep-03 10:31N 40°42' W 074°01'1 2.2
2017-Sep-03 10:00N 40°42' W 074°02'0 0.0
2017-Sep-03 09:30N 40°42' W 074°02'0 0.0
2017-Sep-02 23:15N 40°42' W 074°02'0 0.1
2017-Sep-02 23:01N 40°42' W 074°02'0 0.5
2017-Sep-02 22:31N 40°42' W 074°02'0 0.6
2017-Sep-02 22:01N 40°42' W 074°02'0 0.8
2017-Sep-02 21:31N 40°42' W 074°02'0 0.6
2017-Sep-02 21:01N 40°41' W 074°02'1 2.0
2017-Sep-02 20:30N 40°42' W 074°02'1 2.2
2017-Sep-02 20:01N 40°41' W 074°03'1 2.3
2017-Sep-02 19:31N 40°42' W 074°02'1 2.4
2017-Sep-02 19:01N 40°41' W 074°03'1 1.3
2017-Sep-02 18:31N 40°42' W 074°02'0 0.5
2017-Sep-02 18:01N 40°42' W 074°02'0 0.4
2017-Sep-02 17:31N 40°42' W 074°02'1 1.1
2017-Sep-02 17:01N 40°42' W 074°02'1 2.3
2017-Sep-02 16:31N 40°41' W 074°03'1 2.3
2017-Sep-02 16:00N 40°42' W 074°02'1 2.6
2017-Sep-02 15:31N 40°41' W 074°03'1 1.5
2017-Sep-02 15:01N 40°42' W 074°02'1 1.0
2017-Sep-02 14:30N 40°42' W 074°02'1 1.8
2017-Sep-02 14:01N 40°42' W 074°02'1 1.8
2017-Sep-02 13:31N 40°42' W 074°02'1 2.3
2017-Sep-02 13:01N 40°41' W 074°03'1 2.3
2017-Sep-02 12:31N 40°42' W 074°02'0 0.0
2017-Sep-02 12:00N 40°42' W 074°02'0 0.9
2017-Sep-02 11:31N 40°43' W 074°03'0 0.0
2017-Sep-02 11:01N 40°43' W 074°02'0 0.0
2017-Sep-01 23:17N 40°43' W 074°02'0 1.6
2017-Sep-01 23:00N 40°42' W 074°02'1 1.4
2017-Sep-01 22:30N 40°42' W 074°02'1 1.3
2017-Sep-01 22:00N 40°42' W 074°02'1 2.5
2017-Sep-01 21:30N 40°41' W 074°03'1 2.5
2017-Sep-01 21:00N 40°42' W 074°02'1 2.2
2017-Sep-01 20:30N 40°41' W 074°03'1 2.3
2017-Sep-01 20:00N 40°42' W 074°02'1 2.3
2017-Sep-01 19:30N 40°41' W 074°03'1 1.2
2017-Sep-01 19:00N 40°42' W 074°02'1 1.7
2017-Sep-01 18:30N 40°41' W 074°03'1 1.7
2017-Sep-01 18:00N 40°42' W 074°02'1 1.0
2017-Sep-01 17:30N 40°42' W 074°02'1 2.3
2017-Sep-01 17:00N 40°41' W 074°03'1 2.3
2017-Sep-01 16:30N 40°42' W 074°02'1 2.3
2017-Sep-01 16:00N 40°41' W 074°03'1 1.3
2017-Sep-01 15:30N 40°42' W 074°02'0 0.6
2017-Sep-01 15:00N 40°42' W 074°02'0 0.6
2017-Sep-01 14:30N 40°42' W 074°02'1 1.5
2017-Sep-01 14:00N 40°41' W 074°03'  

Dump ship's entire track history